sensor_id;sensor_type;location;lat;lon;timestamp;P1;durP1;ratioP1;P2;durP2;ratioP2
14348;SDS011;7258;50.376;8.742;2023-05-15T00:01:20;3.97;;;3.57;;
14348;SDS011;7258;50.376;8.742;2023-05-15T00:03:23;3.80;;;3.47;;
14348;SDS011;7258;50.376;8.742;2023-05-15T00:05:27;4.10;;;3.80;;
14348;SDS011;7258;50.376;8.742;2023-05-15T00:07:30;4.73;;;3.50;;
14348;SDS011;7258;50.376;8.742;2023-05-15T00:09:33;4.60;;;4.17;;
14348;SDS011;7258;50.376;8.742;2023-05-15T00:11:39;4.37;;;3.60;;
14348;SDS011;7258;50.376;8.742;2023-05-15T00:13:44;5.17;;;4.00;;
14348;SDS011;7258;50.376;8.742;2023-05-15T00:15:53;4.50;;;4.10;;
14348;SDS011;7258;50.376;8.742;2023-05-15T00:17:55;4.27;;;3.80;;
14348;SDS011;7258;50.376;8.742;2023-05-15T00:19:58;4.67;;;3.90;;
14348;SDS011;7258;50.376;8.742;2023-05-15T00:22:01;4.50;;;4.10;;
14348;SDS011;7258;50.376;8.742;2023-05-15T00:24:05;4.37;;;4.00;;
14348;SDS011;7258;50.376;8.742;2023-05-15T00:26:08;4.63;;;4.23;;
14348;SDS011;7258;50.376;8.742;2023-05-15T00:28:11;4.57;;;3.63;;
14348;SDS011;7258;50.376;8.742;2023-05-15T00:30:14;4.63;;;4.20;;
14348;SDS011;7258;50.376;8.742;2023-05-15T00:32:19;4.40;;;4.10;;
14348;SDS011;7258;50.376;8.742;2023-05-15T00:34:23;4.60;;;4.10;;
14348;SDS011;7258;50.376;8.742;2023-05-15T00:36:39;4.63;;;4.23;;
14348;SDS011;7258;50.376;8.742;2023-05-15T00:38:42;4.37;;;3.90;;
14348;SDS011;7258;50.376;8.742;2023-05-15T00:40:47;4.60;;;4.20;;
14348;SDS011;7258;50.376;8.742;2023-05-15T00:42:51;4.57;;;4.17;;
14348;SDS011;7258;50.376;8.742;2023-05-15T00:44:54;4.67;;;4.27;;
14348;SDS011;7258;50.376;8.742;2023-05-15T00:46:59;4.50;;;4.10;;
14348;SDS011;7258;50.376;8.742;2023-05-15T00:49:04;4.73;;;4.33;;
14348;SDS011;7258;50.376;8.742;2023-05-15T00:51:13;4.40;;;4.00;;
14348;SDS011;7258;50.376;8.742;2023-05-15T00:53:16;4.70;;;4.30;;
14348;SDS011;7258;50.376;8.742;2023-05-15T00:55:20;6.27;;;4.30;;
14348;SDS011;7258;50.376;8.742;2023-05-15T00:57:23;4.77;;;4.37;;
14348;SDS011;7258;50.376;8.742;2023-05-15T00:59:28;4.97;;;4.10;;
14348;SDS011;7258;50.376;8.742;2023-05-15T01:01:32;4.53;;;4.13;;
14348;SDS011;7258;50.376;8.742;2023-05-15T01:03:36;4.80;;;4.30;;
14348;SDS011;7258;50.376;8.742;2023-05-15T01:05:41;4.80;;;4.43;;
14348;SDS011;7258;50.376;8.742;2023-05-15T01:07:47;4.90;;;4.33;;
14348;SDS011;7258;50.376;8.742;2023-05-15T01:09:53;4.77;;;4.37;;
14348;SDS011;7258;50.376;8.742;2023-05-15T01:11:57;4.73;;;4.33;;
14348;SDS011;7258;50.376;8.742;2023-05-15T01:14:02;4.90;;;4.40;;
14348;SDS011;7258;50.376;8.742;2023-05-15T01:16:06;5.17;;;4.57;;
14348;SDS011;7258;50.376;8.742;2023-05-15T01:18:10;4.83;;;4.43;;
14348;SDS011;7258;50.376;8.742;2023-05-15T01:20:13;5.33;;;4.40;;
14348;SDS011;7258;50.376;8.742;2023-05-15T01:22:32;4.90;;;4.47;;
14348;SDS011;7258;50.376;8.742;2023-05-15T01:24:49;4.87;;;4.57;;
14348;SDS011;7258;50.376;8.742;2023-05-15T01:27:26;5.00;;;4.47;;
14348;SDS011;7258;50.376;8.742;2023-05-15T01:29:32;5.10;;;4.60;;
14348;SDS011;7258;50.376;8.742;2023-05-15T01:31:42;4.87;;;4.40;;
14348;SDS011;7258;50.376;8.742;2023-05-15T01:33:49;4.77;;;4.40;;
14348;SDS011;7258;50.376;8.742;2023-05-15T01:35:57;4.63;;;4.30;;
14348;SDS011;7258;50.376;8.742;2023-05-15T01:38:08;5.10;;;4.60;;
14348;SDS011;7258;50.376;8.742;2023-05-15T01:40:16;5.30;;;4.80;;
14348;SDS011;7258;50.376;8.742;2023-05-15T01:42:20;4.67;;;4.27;;
14348;SDS011;7258;50.376;8.742;2023-05-15T01:44:29;5.00;;;4.20;;
14348;SDS011;7258;50.376;8.742;2023-05-15T01:46:33;5.00;;;4.50;;
14348;SDS011;7258;50.376;8.742;2023-05-15T01:48:40;4.77;;;4.37;;
14348;SDS011;7258;50.376;8.742;2023-05-15T01:50:46;5.00;;;4.60;;
14348;SDS011;7258;50.376;8.742;2023-05-15T01:52:53;7.57;;;5.10;;
14348;SDS011;7258;50.376;8.742;2023-05-15T01:55:00;6.23;;;4.70;;
14348;SDS011;7258;50.376;8.742;2023-05-15T01:57:04;5.10;;;4.70;;
14348;SDS011;7258;50.376;8.742;2023-05-15T01:59:08;6.73;;;4.90;;
14348;SDS011;7258;50.376;8.742;2023-05-15T02:01:13;6.13;;;5.40;;
14348;SDS011;7258;50.376;8.742;2023-05-15T02:03:17;5.53;;;5.03;;
14348;SDS011;7258;50.376;8.742;2023-05-15T02:05:21;5.00;;;4.60;;
14348;SDS011;7258;50.376;8.742;2023-05-15T02:07:33;4.90;;;4.50;;
14348;SDS011;7258;50.376;8.742;2023-05-15T02:09:36;5.30;;;4.80;;
14348;SDS011;7258;50.376;8.742;2023-05-15T02:11:40;5.77;;;4.87;;
14348;SDS011;7258;50.376;8.742;2023-05-15T02:13:43;5.47;;;5.07;;
14348;SDS011;7258;50.376;8.742;2023-05-15T02:15:47;5.23;;;4.83;;
14348;SDS011;7258;50.376;8.742;2023-05-15T02:17:51;5.10;;;4.70;;
14348;SDS011;7258;50.376;8.742;2023-05-15T02:19:54;5.53;;;5.03;;
14348;SDS011;7258;50.376;8.742;2023-05-15T02:21:57;5.37;;;4.97;;
14348;SDS011;7258;50.376;8.742;2023-05-15T02:24:00;5.33;;;4.83;;
14348;SDS011;7258;50.376;8.742;2023-05-15T02:26:07;4.80;;;4.40;;
14348;SDS011;7258;50.376;8.742;2023-05-15T02:28:20;6.23;;;5.13;;
14348;SDS011;7258;50.376;8.742;2023-05-15T02:30:31;5.27;;;4.63;;
14348;SDS011;7258;50.376;8.742;2023-05-15T02:32:40;5.40;;;4.90;;
14348;SDS011;7258;50.376;8.742;2023-05-15T02:34:51;5.13;;;4.73;;
14348;SDS011;7258;50.376;8.742;2023-05-15T02:37:03;5.03;;;4.50;;
14348;SDS011;7258;50.376;8.742;2023-05-15T02:39:12;5.43;;;5.03;;
14348;SDS011;7258;50.376;8.742;2023-05-15T02:41:16;5.83;;;5.33;;
14348;SDS011;7258;50.376;8.742;2023-05-15T02:43:23;7.43;;;5.20;;
14348;SDS011;7258;50.376;8.742;2023-05-15T02:45:27;5.53;;;4.57;;
14348;SDS011;7258;50.376;8.742;2023-05-15T02:47:31;5.80;;;5.30;;
14348;SDS011;7258;50.376;8.742;2023-05-15T02:49:35;6.30;;;5.80;;
14348;SDS011;7258;50.376;8.742;2023-05-15T02:51:40;6.43;;;5.20;;
14348;SDS011;7258;50.376;8.742;2023-05-15T02:53:44;5.73;;;5.23;;
14348;SDS011;7258;50.376;8.742;2023-05-15T02:55:47;6.67;;;5.57;;
14348;SDS011;7258;50.376;8.742;2023-05-15T02:57:50;6.10;;;5.43;;
14348;SDS011;7258;50.376;8.742;2023-05-15T02:59:53;5.80;;;5.20;;
14348;SDS011;7258;50.376;8.742;2023-05-15T03:01:57;7.63;;;5.30;;
14348;SDS011;7258;50.376;8.742;2023-05-15T03:04:00;5.83;;;5.33;;
14348;SDS011;7258;50.376;8.742;2023-05-15T03:06:03;5.80;;;5.30;;
14348;SDS011;7258;50.376;8.742;2023-05-15T03:08:08;5.83;;;5.33;;
14348;SDS011;7258;50.376;8.742;2023-05-15T03:10:10;6.20;;;5.60;;
14348;SDS011;7258;50.376;8.742;2023-05-15T03:12:13;6.30;;;5.70;;
14348;SDS011;7258;50.376;8.742;2023-05-15T03:14:16;6.17;;;5.57;;
14348;SDS011;7258;50.376;8.742;2023-05-15T03:16:20;6.47;;;5.93;;
14348;SDS011;7258;50.376;8.742;2023-05-15T03:18:23;5.90;;;5.23;;
14348;SDS011;7258;50.376;8.742;2023-05-15T03:20:25;6.00;;;5.50;;
14348;SDS011;7258;50.376;8.742;2023-05-15T03:22:28;6.43;;;5.83;;
14348;SDS011;7258;50.376;8.742;2023-05-15T03:24:33;6.07;;;5.53;;
14348;SDS011;7258;50.376;8.742;2023-05-15T03:26:36;6.17;;;5.57;;
14348;SDS011;7258;50.376;8.742;2023-05-15T03:28:40;6.33;;;5.77;;
14348;SDS011;7258;50.376;8.742;2023-05-15T03:30:43;6.03;;;5.43;;
14348;SDS011;7258;50.376;8.742;2023-05-15T03:32:46;6.00;;;5.33;;
14348;SDS011;7258;50.376;8.742;2023-05-15T03:34:49;6.47;;;5.83;;
14348;SDS011;7258;50.376;8.742;2023-05-15T03:36:52;6.70;;;5.90;;
14348;SDS011;7258;50.376;8.742;2023-05-15T03:38:55;6.60;;;6.10;;
14348;SDS011;7258;50.376;8.742;2023-05-15T03:41:00;6.40;;;5.90;;
14348;SDS011;7258;50.376;8.742;2023-05-15T03:43:03;8.23;;;5.80;;
14348;SDS011;7258;50.376;8.742;2023-05-15T03:45:07;7.03;;;6.33;;
14348;SDS011;7258;50.376;8.742;2023-05-15T03:47:10;6.50;;;5.90;;
14348;SDS011;7258;50.376;8.742;2023-05-15T03:49:13;6.57;;;6.07;;
14348;SDS011;7258;50.376;8.742;2023-05-15T03:51:16;6.73;;;6.13;;
14348;SDS011;7258;50.376;8.742;2023-05-15T03:53:19;6.43;;;5.93;;
14348;SDS011;7258;50.376;8.742;2023-05-15T03:55:22;6.33;;;5.83;;
14348;SDS011;7258;50.376;8.742;2023-05-15T03:57:26;6.30;;;5.80;;
14348;SDS011;7258;50.376;8.742;2023-05-15T03:59:29;6.23;;;5.73;;
14348;SDS011;7258;50.376;8.742;2023-05-15T04:01:32;6.83;;;6.23;;
14348;SDS011;7258;50.376;8.742;2023-05-15T04:03:51;6.20;;;5.70;;
14348;SDS011;7258;50.376;8.742;2023-05-15T04:05:54;6.73;;;6.23;;
14348;SDS011;7258;50.376;8.742;2023-05-15T04:07:57;7.10;;;6.40;;
14348;SDS011;7258;50.376;8.742;2023-05-15T04:10:00;7.23;;;6.53;;
14348;SDS011;7258;50.376;8.742;2023-05-15T04:12:03;6.80;;;6.23;;
14348;SDS011;7258;50.376;8.742;2023-05-15T04:14:08;7.03;;;6.53;;
14348;SDS011;7258;50.376;8.742;2023-05-15T04:16:11;6.57;;;5.97;;
14348;SDS011;7258;50.376;8.742;2023-05-15T04:18:14;6.53;;;6.03;;
14348;SDS011;7258;50.376;8.742;2023-05-15T04:20:18;6.20;;;5.70;;
14348;SDS011;7258;50.376;8.742;2023-05-15T04:22:22;6.60;;;5.97;;
14348;SDS011;7258;50.376;8.742;2023-05-15T04:24:25;6.43;;;5.77;;
14348;SDS011;7258;50.376;8.742;2023-05-15T04:26:28;6.27;;;5.77;;
14348;SDS011;7258;50.376;8.742;2023-05-15T04:28:31;6.27;;;5.63;;
14348;SDS011;7258;50.376;8.742;2023-05-15T04:30:36;6.67;;;6.07;;
14348;SDS011;7258;50.376;8.742;2023-05-15T04:32:39;6.93;;;5.47;;
14348;SDS011;7258;50.376;8.742;2023-05-15T04:34:42;6.60;;;5.90;;
14348;SDS011;7258;50.376;8.742;2023-05-15T04:36:46;5.67;;;5.17;;
14348;SDS011;7258;50.376;8.742;2023-05-15T04:38:51;6.43;;;5.83;;
14348;SDS011;7258;50.376;8.742;2023-05-15T04:40:54;6.90;;;6.30;;
14348;SDS011;7258;50.376;8.742;2023-05-15T04:42:56;6.40;;;5.80;;
14348;SDS011;7258;50.376;8.742;2023-05-15T04:45:00;5.93;;;5.53;;
14348;SDS011;7258;50.376;8.742;2023-05-15T04:47:05;7.10;;;6.40;;
14348;SDS011;7258;50.376;8.742;2023-05-15T04:49:08;8.07;;;7.00;;
14348;SDS011;7258;50.376;8.742;2023-05-15T04:51:10;6.90;;;6.30;;
14348;SDS011;7258;50.376;8.742;2023-05-15T04:53:13;6.87;;;6.37;;
14348;SDS011;7258;50.376;8.742;2023-05-15T04:55:17;7.20;;;6.10;;
14348;SDS011;7258;50.376;8.742;2023-05-15T04:57:20;6.30;;;5.80;;
14348;SDS011;7258;50.376;8.742;2023-05-15T04:59:23;7.00;;;6.40;;
14348;SDS011;7258;50.376;8.742;2023-05-15T05:01:27;7.73;;;6.50;;
14348;SDS011;7258;50.376;8.742;2023-05-15T05:03:32;7.47;;;6.87;;
14348;SDS011;7258;50.376;8.742;2023-05-15T05:05:35;6.77;;;6.23;;
14348;SDS011;7258;50.376;8.742;2023-05-15T05:07:38;7.53;;;6.93;;
14348;SDS011;7258;50.376;8.742;2023-05-15T05:09:42;6.90;;;6.30;;
14348;SDS011;7258;50.376;8.742;2023-05-15T05:11:50;7.30;;;6.70;;
14348;SDS011;7258;50.376;8.742;2023-05-15T05:13:53;8.00;;;7.20;;
14348;SDS011;7258;50.376;8.742;2023-05-15T05:15:56;7.80;;;7.00;;
14348;SDS011;7258;50.376;8.742;2023-05-15T05:17:59;7.27;;;6.67;;
14348;SDS011;7258;50.376;8.742;2023-05-15T05:20:04;7.37;;;6.73;;
14348;SDS011;7258;50.376;8.742;2023-05-15T05:22:13;7.57;;;6.83;;
14348;SDS011;7258;50.376;8.742;2023-05-15T05:24:16;7.83;;;6.57;;
14348;SDS011;7258;50.376;8.742;2023-05-15T05:26:19;6.97;;;6.30;;
14348;SDS011;7258;50.376;8.742;2023-05-15T05:28:22;8.13;;;6.40;;
14348;SDS011;7258;50.376;8.742;2023-05-15T05:30:25;8.00;;;6.83;;
14348;SDS011;7258;50.376;8.742;2023-05-15T05:32:28;8.93;;;6.83;;
14348;SDS011;7258;50.376;8.742;2023-05-15T05:34:32;6.47;;;6.00;;
14348;SDS011;7258;50.376;8.742;2023-05-15T05:36:36;6.67;;;6.10;;
14348;SDS011;7258;50.376;8.742;2023-05-15T05:38:39;7.00;;;6.50;;
14348;SDS011;7258;50.376;8.742;2023-05-15T05:40:41;8.00;;;6.93;;
14348;SDS011;7258;50.376;8.742;2023-05-15T05:42:44;6.30;;;5.70;;
14348;SDS011;7258;50.376;8.742;2023-05-15T05:44:47;6.67;;;5.90;;
14348;SDS011;7258;50.376;8.742;2023-05-15T05:46:51;5.57;;;5.07;;
14348;SDS011;7258;50.376;8.742;2023-05-15T05:48:53;7.20;;;6.03;;
14348;SDS011;7258;50.376;8.742;2023-05-15T05:50:56;6.20;;;5.60;;
14348;SDS011;7258;50.376;8.742;2023-05-15T05:53:01;7.67;;;6.00;;
14348;SDS011;7258;50.376;8.742;2023-05-15T05:55:04;5.93;;;5.47;;
14348;SDS011;7258;50.376;8.742;2023-05-15T05:57:07;8.87;;;5.77;;
14348;SDS011;7258;50.376;8.742;2023-05-15T05:59:11;6.70;;;5.90;;
14348;SDS011;7258;50.376;8.742;2023-05-15T06:01:14;6.20;;;5.60;;
14348;SDS011;7258;50.376;8.742;2023-05-15T06:03:17;6.10;;;5.60;;
14348;SDS011;7258;50.376;8.742;2023-05-15T06:05:20;5.67;;;5.27;;
14348;SDS011;7258;50.376;8.742;2023-05-15T06:07:23;7.23;;;5.27;;
14348;SDS011;7258;50.376;8.742;2023-05-15T06:09:28;5.67;;;5.17;;
14348;SDS011;7258;50.376;8.742;2023-05-15T06:11:31;5.33;;;4.93;;
14348;SDS011;7258;50.376;8.742;2023-05-15T06:13:34;6.00;;;5.10;;
14348;SDS011;7258;50.376;8.742;2023-05-15T06:15:37;5.95;;;5.05;;
14348;SDS011;7258;50.376;8.742;2023-05-15T06:17:40;6.97;;;4.93;;
14348;SDS011;7258;50.376;8.742;2023-05-15T06:19:46;5.25;;;4.75;;
14348;SDS011;7258;50.376;8.742;2023-05-15T06:21:48;5.85;;;4.47;;
14348;SDS011;7258;50.376;8.742;2023-05-15T06:23:51;6.63;;;4.90;;
14348;SDS011;7258;50.376;8.742;2023-05-15T06:25:56;5.80;;;4.95;;
14348;SDS011;7258;50.376;8.742;2023-05-15T06:27:59;6.15;;;5.03;;
14348;SDS011;7258;50.376;8.742;2023-05-15T06:30:02;5.10;;;4.60;;
14348;SDS011;7258;50.376;8.742;2023-05-15T06:32:05;5.80;;;5.32;;
14348;SDS011;7258;50.376;8.742;2023-05-15T06:34:08;5.38;;;4.85;;
14348;SDS011;7258;50.376;8.742;2023-05-15T06:36:11;5.43;;;4.93;;
14348;SDS011;7258;50.376;8.742;2023-05-15T06:38:14;4.80;;;4.50;;
14348;SDS011;7258;50.376;8.742;2023-05-15T06:40:17;5.57;;;4.47;;
14348;SDS011;7258;50.376;8.742;2023-05-15T06:42:21;4.60;;;4.30;;
14348;SDS011;7258;50.376;8.742;2023-05-15T06:44:24;4.35;;;3.83;;
14348;SDS011;7258;50.376;8.742;2023-05-15T06:46:27;4.32;;;3.65;;
14348;SDS011;7258;50.376;8.742;2023-05-15T06:48:30;4.65;;;4.05;;
14348;SDS011;7258;50.376;8.742;2023-05-15T06:50:33;4.18;;;3.88;;
14348;SDS011;7258;50.376;8.742;2023-05-15T06:52:36;4.53;;;4.13;;
14348;SDS011;7258;50.376;8.742;2023-05-15T06:54:39;3.88;;;3.58;;
14348;SDS011;7258;50.376;8.742;2023-05-15T06:56:43;5.15;;;3.88;;
14348;SDS011;7258;50.376;8.742;2023-05-15T06:58:47;4.90;;;3.88;;
14348;SDS011;7258;50.376;8.742;2023-05-15T07:00:50;4.53;;;3.20;;
14348;SDS011;7258;50.376;8.742;2023-05-15T07:02:56;3.70;;;3.40;;
14348;SDS011;7258;50.376;8.742;2023-05-15T07:04:59;4.45;;;3.50;;
14348;SDS011;7258;50.376;8.742;2023-05-15T07:07:03;5.13;;;3.60;;
14348;SDS011;7258;50.376;8.742;2023-05-15T07:09:06;4.60;;;4.30;;
14348;SDS011;7258;50.376;8.742;2023-05-15T07:11:09;5.03;;;4.60;;
14348;SDS011;7258;50.376;8.742;2023-05-15T07:13:12;4.70;;;4.28;;
14348;SDS011;7258;50.376;8.742;2023-05-15T07:15:16;8.57;;;5.00;;
14348;SDS011;7258;50.376;8.742;2023-05-15T07:17:20;5.40;;;4.90;;
14348;SDS011;7258;50.376;8.742;2023-05-15T07:19:22;6.25;;;4.60;;
14348;SDS011;7258;50.376;8.742;2023-05-15T07:21:25;5.30;;;4.90;;
14348;SDS011;7258;50.376;8.742;2023-05-15T07:23:28;5.35;;;4.85;;
14348;SDS011;7258;50.376;8.742;2023-05-15T07:25:31;4.97;;;4.57;;
14348;SDS011;7258;50.376;8.742;2023-05-15T07:27:34;5.13;;;4.63;;
14348;SDS011;7258;50.376;8.742;2023-05-15T07:29:37;5.15;;;4.47;;
14348;SDS011;7258;50.376;8.742;2023-05-15T07:31:41;4.90;;;4.40;;
14348;SDS011;7258;50.376;8.742;2023-05-15T07:33:44;4.70;;;4.30;;
14348;SDS011;7258;50.376;8.742;2023-05-15T07:35:49;4.50;;;4.10;;
14348;SDS011;7258;50.376;8.742;2023-05-15T07:37:52;4.85;;;4.45;;
14348;SDS011;7258;50.376;8.742;2023-05-15T07:39:55;4.78;;;4.15;;
14348;SDS011;7258;50.376;8.742;2023-05-15T07:41:57;5.05;;;4.55;;
14348;SDS011;7258;50.376;8.742;2023-05-15T07:44:00;4.72;;;4.32;;
14348;SDS011;7258;50.376;8.742;2023-05-15T07:46:03;5.32;;;4.38;;
14348;SDS011;7258;50.376;8.742;2023-05-15T07:48:14;4.55;;;3.92;;
14348;SDS011;7258;50.376;8.742;2023-05-15T07:50:18;4.65;;;4.03;;
14348;SDS011;7258;50.376;8.742;2023-05-15T07:52:21;5.45;;;3.80;;
14348;SDS011;7258;50.376;8.742;2023-05-15T07:54:24;4.60;;;4.20;;
14348;SDS011;7258;50.376;8.742;2023-05-15T07:56:27;4.30;;;3.90;;
14348;SDS011;7258;50.376;8.742;2023-05-15T07:58:30;4.60;;;3.78;;
14348;SDS011;7258;50.376;8.742;2023-05-15T08:00:35;4.55;;;3.55;;
14348;SDS011;7258;50.376;8.742;2023-05-15T08:02:38;4.15;;;3.70;;
14348;SDS011;7258;50.376;8.742;2023-05-15T08:04:44;5.50;;;3.58;;
14348;SDS011;7258;50.376;8.742;2023-05-15T08:06:47;7.93;;;3.10;;
14348;SDS011;7258;50.376;8.742;2023-05-15T08:08:50;3.55;;;3.25;;
14348;SDS011;7258;50.376;8.742;2023-05-15T08:10:53;3.50;;;3.28;;
14348;SDS011;7258;50.376;8.742;2023-05-15T08:12:56;3.63;;;3.33;;
14348;SDS011;7258;50.376;8.742;2023-05-15T08:14:59;4.10;;;3.65;;
14348;SDS011;7258;50.376;8.742;2023-05-15T08:17:02;4.90;;;3.60;;
14348;SDS011;7258;50.376;8.742;2023-05-15T08:19:05;4.10;;;3.50;;
14348;SDS011;7258;50.376;8.742;2023-05-15T08:21:09;3.97;;;3.58;;
14348;SDS011;7258;50.376;8.742;2023-05-15T08:23:12;7.75;;;3.78;;
14348;SDS011;7258;50.376;8.742;2023-05-15T08:25:15;3.95;;;3.65;;
14348;SDS011;7258;50.376;8.742;2023-05-15T08:27:18;3.88;;;3.58;;
14348;SDS011;7258;50.376;8.742;2023-05-15T08:29:21;4.10;;;3.60;;
14348;SDS011;7258;50.376;8.742;2023-05-15T08:31:24;5.28;;;3.80;;
14348;SDS011;7258;50.376;8.742;2023-05-15T08:33:27;4.45;;;3.50;;
14348;SDS011;7258;50.376;8.742;2023-05-15T08:35:30;5.32;;;4.28;;
14348;SDS011;7258;50.376;8.742;2023-05-15T08:37:34;4.22;;;3.83;;
14348;SDS011;7258;50.376;8.742;2023-05-15T08:39:37;7.32;;;3.78;;
14348;SDS011;7258;50.376;8.742;2023-05-15T08:41:41;4.28;;;3.38;;
14348;SDS011;7258;50.376;8.742;2023-05-15T08:43:49;5.43;;;3.72;;
14348;SDS011;7258;50.376;8.742;2023-05-15T08:45:55;5.90;;;3.50;;
14348;SDS011;7258;50.376;8.742;2023-05-15T08:47:58;3.88;;;3.38;;
14348;SDS011;7258;50.376;8.742;2023-05-15T08:50:04;4.65;;;3.75;;
14348;SDS011;7258;50.376;8.742;2023-05-15T08:52:08;4.43;;;3.50;;
14348;SDS011;7258;50.376;8.742;2023-05-15T08:54:12;5.32;;;3.40;;
14348;SDS011;7258;50.376;8.742;2023-05-15T08:56:16;3.80;;;3.30;;
14348;SDS011;7258;50.376;8.742;2023-05-15T08:58:20;7.18;;;3.58;;
14348;SDS011;7258;50.376;8.742;2023-05-15T09:00:26;5.60;;;3.40;;
14348;SDS011;7258;50.376;8.742;2023-05-15T09:02:29;3.25;;;2.90;;
14348;SDS011;7258;50.376;8.742;2023-05-15T09:04:32;3.80;;;3.40;;
14348;SDS011;7258;50.376;8.742;2023-05-15T09:06:35;3.67;;;3.30;;
14348;SDS011;7258;50.376;8.742;2023-05-15T09:08:41;3.92;;;3.45;;
14348;SDS011;7258;50.376;8.742;2023-05-15T09:10:46;3.63;;;3.33;;
14348;SDS011;7258;50.376;8.742;2023-05-15T09:12:50;5.03;;;3.58;;
14348;SDS011;7258;50.376;8.742;2023-05-15T09:15:06;3.85;;;3.33;;
14348;SDS011;7258;50.376;8.742;2023-05-15T09:17:10;4.00;;;3.70;;
14348;SDS011;7258;50.376;8.742;2023-05-15T09:19:13;3.78;;;3.45;;
14348;SDS011;7258;50.376;8.742;2023-05-15T09:21:23;4.47;;;4.07;;
14348;SDS011;7258;50.376;8.742;2023-05-15T09:23:26;3.65;;;3.40;;
14348;SDS011;7258;50.376;8.742;2023-05-15T09:25:36;3.50;;;3.20;;
14348;SDS011;7258;50.376;8.742;2023-05-15T09:27:42;4.32;;;3.92;;
14348;SDS011;7258;50.376;8.742;2023-05-15T09:29:45;3.88;;;3.58;;
14348;SDS011;7258;50.376;8.742;2023-05-15T09:31:51;5.43;;;3.67;;
14348;SDS011;7258;50.376;8.742;2023-05-15T09:33:57;4.05;;;3.75;;
14348;SDS011;7258;50.376;8.742;2023-05-15T09:36:05;4.57;;;4.18;;
14348;SDS011;7258;50.376;8.742;2023-05-15T09:38:11;6.70;;;3.97;;
14348;SDS011;7258;50.376;8.742;2023-05-15T09:40:14;4.35;;;3.83;;
14348;SDS011;7258;50.376;8.742;2023-05-15T09:42:20;4.00;;;3.60;;
14348;SDS011;7258;50.376;8.742;2023-05-15T09:44:27;4.57;;;3.95;;
14348;SDS011;7258;50.376;8.742;2023-05-15T09:46:33;6.80;;;3.97;;
14348;SDS011;7258;50.376;8.742;2023-05-15T09:48:37;4.15;;;3.75;;
14348;SDS011;7258;50.376;8.742;2023-05-15T09:50:40;5.30;;;3.88;;
14348;SDS011;7258;50.376;8.742;2023-05-15T09:52:43;4.80;;;4.30;;
14348;SDS011;7258;50.376;8.742;2023-05-15T09:54:46;4.88;;;4.43;;
14348;SDS011;7258;50.376;8.742;2023-05-15T09:56:51;4.40;;;4.10;;
14348;SDS011;7258;50.376;8.742;2023-05-15T09:58:55;6.00;;;4.43;;
14348;SDS011;7258;50.376;8.742;2023-05-15T10:01:01;5.55;;;4.28;;
14348;SDS011;7258;50.376;8.742;2023-05-15T10:03:05;3.60;;;3.35;;
14348;SDS011;7258;50.376;8.742;2023-05-15T10:05:10;4.43;;;3.63;;
14348;SDS011;7258;50.376;8.742;2023-05-15T10:07:13;3.92;;;3.53;;
14348;SDS011;7258;50.376;8.742;2023-05-15T10:09:29;8.02;;;3.72;;
14348;SDS011;7258;50.376;8.742;2023-05-15T10:11:33;6.70;;;3.97;;
14348;SDS011;7258;50.376;8.742;2023-05-15T10:13:36;5.30;;;4.05;;
14348;SDS011;7258;50.376;8.742;2023-05-15T10:15:39;5.03;;;4.63;;
14348;SDS011;7258;50.376;8.742;2023-05-15T10:17:45;9.18;;;6.45;;
14348;SDS011;7258;50.376;8.742;2023-05-15T10:19:49;6.97;;;6.03;;
14348;SDS011;7258;50.376;8.742;2023-05-15T10:21:58;6.68;;;6.05;;
14348;SDS011;7258;50.376;8.742;2023-05-15T10:24:02;6.03;;;5.53;;
14348;SDS011;7258;50.376;8.742;2023-05-15T10:26:07;7.55;;;5.93;;
14348;SDS011;7258;50.376;8.742;2023-05-15T10:28:15;7.90;;;6.40;;
14348;SDS011;7258;50.376;8.742;2023-05-15T10:30:20;9.85;;;6.80;;
14348;SDS011;7258;50.376;8.742;2023-05-15T10:32:23;8.30;;;5.90;;
14348;SDS011;7258;50.376;8.742;2023-05-15T10:34:29;7.93;;;6.25;;
14348;SDS011;7258;50.376;8.742;2023-05-15T10:36:33;6.25;;;5.63;;
14348;SDS011;7258;50.376;8.742;2023-05-15T10:38:38;7.43;;;6.75;;
14348;SDS011;7258;50.376;8.742;2023-05-15T10:40:41;8.27;;;7.38;;
14348;SDS011;7258;50.376;8.742;2023-05-15T10:42:46;7.70;;;7.00;;
14348;SDS011;7258;50.376;8.742;2023-05-15T10:44:49;7.13;;;6.18;;
14348;SDS011;7258;50.376;8.742;2023-05-15T10:46:54;7.47;;;6.68;;
14348;SDS011;7258;50.376;8.742;2023-05-15T10:48:57;8.65;;;7.85;;
14348;SDS011;7258;50.376;8.742;2023-05-15T10:51:02;9.75;;;8.30;;
14348;SDS011;7258;50.376;8.742;2023-05-15T10:53:05;11.48;;;9.82;;
14348;SDS011;7258;50.376;8.742;2023-05-15T10:55:12;9.43;;;8.07;;
14348;SDS011;7258;50.376;8.742;2023-05-15T10:57:19;10.63;;;8.77;;
14348;SDS011;7258;50.376;8.742;2023-05-15T10:59:29;11.95;;;10.50;;
14348;SDS011;7258;50.376;8.742;2023-05-15T11:01:33;11.45;;;9.82;;
14348;SDS011;7258;50.376;8.742;2023-05-15T11:03:38;10.57;;;9.52;;
14348;SDS011;7258;50.376;8.742;2023-05-15T11:06:07;10.73;;;9.43;;
14348;SDS011;7258;50.376;8.742;2023-05-15T11:08:23;13.15;;;10.57;;
14348;SDS011;7258;50.376;8.742;2023-05-15T11:12:55;14.18;;;11.85;;
14348;SDS011;7258;50.376;8.742;2023-05-15T11:17:30;17.38;;;13.05;;
14348;SDS011;7258;50.376;8.742;2023-05-15T11:19:38;16.90;;;13.30;;
14348;SDS011;7258;50.376;8.742;2023-05-15T11:21:59;12.15;;;11.02;;
14348;SDS011;7258;50.376;8.742;2023-05-15T11:24:03;12.77;;;10.95;;
14348;SDS011;7258;50.376;8.742;2023-05-15T11:26:07;11.57;;;10.48;;
14348;SDS011;7258;50.376;8.742;2023-05-15T11:28:19;11.02;;;8.70;;
14348;SDS011;7258;50.376;8.742;2023-05-15T11:30:33;9.82;;;7.95;;
14348;SDS011;7258;50.376;8.742;2023-05-15T11:32:43;11.70;;;9.00;;
14348;SDS011;7258;50.376;8.742;2023-05-15T11:34:50;10.68;;;9.60;;
14348;SDS011;7258;50.376;8.742;2023-05-15T11:36:53;10.88;;;9.77;;
14348;SDS011;7258;50.376;8.742;2023-05-15T11:38:57;12.93;;;11.55;;
14348;SDS011;7258;50.376;8.742;2023-05-15T11:41:01;12.98;;;11.55;;
14348;SDS011;7258;50.376;8.742;2023-05-15T11:43:05;13.85;;;12.35;;
14348;SDS011;7258;50.376;8.742;2023-05-15T11:45:09;17.08;;;13.68;;
14348;SDS011;7258;50.376;8.742;2023-05-15T11:47:12;19.05;;;17.15;;
14348;SDS011;7258;50.376;8.742;2023-05-15T11:49:17;21.73;;;16.77;;
14348;SDS011;7258;50.376;8.742;2023-05-15T11:51:21;18.40;;;16.25;;
14348;SDS011;7258;50.376;8.742;2023-05-15T11:53:28;16.60;;;13.48;;
14348;SDS011;7258;50.376;8.742;2023-05-15T11:55:33;13.88;;;12.38;;
14348;SDS011;7258;50.376;8.742;2023-05-15T11:57:38;13.50;;;10.63;;
14348;SDS011;7258;50.376;8.742;2023-05-15T11:59:41;13.35;;;11.20;;
14348;SDS011;7258;50.376;8.742;2023-05-15T12:01:46;10.48;;;9.48;;
14348;SDS011;7258;50.376;8.742;2023-05-15T12:03:49;11.85;;;9.05;;
14348;SDS011;7258;50.376;8.742;2023-05-15T12:05:54;10.73;;;9.63;;
14348;SDS011;7258;50.376;8.742;2023-05-15T12:08:00;9.60;;;8.60;;
14348;SDS011;7258;50.376;8.742;2023-05-15T12:10:04;17.00;;;9.40;;
14348;SDS011;7258;50.376;8.742;2023-05-15T12:12:12;10.15;;;9.10;;
14348;SDS011;7258;50.376;8.742;2023-05-15T12:14:15;10.65;;;9.57;;
14348;SDS011;7258;50.376;8.742;2023-05-15T12:16:22;11.07;;;9.98;;
14348;SDS011;7258;50.376;8.742;2023-05-15T12:18:26;11.32;;;10.23;;
14348;SDS011;7258;50.376;8.742;2023-05-15T12:20:31;11.52;;;10.05;;
14348;SDS011;7258;50.376;8.742;2023-05-15T12:22:35;12.95;;;10.50;;
14348;SDS011;7258;50.376;8.742;2023-05-15T12:24:39;12.25;;;10.15;;
14348;SDS011;7258;50.376;8.742;2023-05-15T12:26:42;13.32;;;10.93;;
14348;SDS011;7258;50.376;8.742;2023-05-15T12:28:46;11.23;;;10.13;;
14348;SDS011;7258;50.376;8.742;2023-05-15T12:30:49;9.07;;;7.50;;
14348;SDS011;7258;50.376;8.742;2023-05-15T12:32:52;8.13;;;6.88;;
14348;SDS011;7258;50.376;8.742;2023-05-15T12:34:56;7.65;;;6.90;;
14348;SDS011;7258;50.376;8.742;2023-05-15T12:36:59;8.18;;;7.38;;
14348;SDS011;7258;50.376;8.742;2023-05-15T12:39:03;8.57;;;7.60;;
14348;SDS011;7258;50.376;8.742;2023-05-15T12:41:09;10.52;;;7.65;;
14348;SDS011;7258;50.376;8.742;2023-05-15T12:43:13;6.57;;;5.95;;
14348;SDS011;7258;50.376;8.742;2023-05-15T12:45:17;9.05;;;6.43;;